createdAt,value
2019-05-29T00:00:02.923Z,96015.39
2019-05-29T00:02:31.320Z,96010.83
2019-05-29T00:04:59.784Z,96013.98
2019-05-29T00:07:28.219Z,96019.29
2019-05-29T00:09:56.625Z,96019.41
2019-05-29T00:12:25.020Z,96022.06
2019-05-29T00:14:53.593Z,96025.66
2019-05-29T00:17:21.984Z,96020.69
2019-05-29T00:19:50.389Z,96027.62
2019-05-29T00:22:18.824Z,96024.16
2019-05-29T00:24:47.221Z,96019.72
2019-05-29T00:27:15.703Z,96024.72
2019-05-29T00:29:44.318Z,96020.41
2019-05-29T00:32:13.467Z,96021.94
2019-05-29T00:34:41.930Z,96020.61
2019-05-29T00:37:10.553Z,96022.37
2019-05-29T00:39:38.941Z,96024.54
2019-05-29T00:42:07.426Z,96024.89
2019-05-29T00:44:35.844Z,96029.22
2019-05-29T00:47:04.343Z,96031.05
2019-05-29T00:49:32.729Z,96029.89
2019-05-29T00:52:01.430Z,96033.81
2019-05-29T00:54:30.926Z,96030.95
2019-05-29T00:56:59.411Z,96037.16
2019-05-29T00:59:28.024Z,96035.54
2019-05-29T01:01:56.421Z,96035.08
2019-05-29T01:04:24.813Z,96034.77
2019-05-29T01:06:53.233Z,96037.42
2019-05-29T01:09:21.623Z,96037.17
2019-05-29T01:11:50.024Z,96037.33
2019-05-29T01:14:19.363Z,96036.87
2019-05-29T01:16:47.878Z,96035.08
2019-05-29T01:19:25.360Z,96034.62
2019-05-29T01:21:55.216Z,96035.17
2019-05-29T01:24:24.153Z,96035.22
2019-05-29T01:26:52.573Z,96038.69
2019-05-29T01:29:21.171Z,96042.32
2019-05-29T01:31:49.795Z,96039.55
2019-05-29T01:34:18.411Z,96040.56
2019-05-29T01:36:46.811Z,96041.84
2019-05-29T01:39:15.209Z,96039.88
2019-05-29T01:41:43.633Z,96047.67
2019-05-29T01:44:12.030Z,96047.20
2019-05-29T01:46:40.435Z,96054.33
2019-05-29T01:49:08.985Z,96056.67
2019-05-29T01:51:37.453Z,96053.19
2019-05-29T01:54:05.849Z,96054.51
2019-05-29T01:56:34.315Z,96056.17
2019-05-29T01:59:02.718Z,96053.34
2019-05-29T02:01:31.114Z,96048.22
2019-05-29T02:03:59.533Z,96055.15
2019-05-29T02:06:28.233Z,96054.16
2019-05-29T02:08:56.707Z,96056.12
2019-05-29T02:11:25.130Z,96057.14
2019-05-29T02:13:53.605Z,96058.47
2019-05-29T02:16:22.686Z,96059.45
2019-05-29T02:18:51.195Z,96066.94
2019-05-29T02:21:20.040Z,96069.28
2019-05-29T02:23:48.459Z,96058.35
2019-05-29T02:26:17.877Z,96066.13
2019-05-29T02:28:46.549Z,96068.09
2019-05-29T02:31:14.943Z,96071.72
2019-05-29T02:33:43.731Z,96064.16
2019-05-29T02:36:12.123Z,96066.52
2019-05-29T02:38:40.521Z,96063.27
2019-05-29T02:41:09.115Z,96062.48
2019-05-29T02:43:37.510Z,96067.95
2019-05-29T02:46:05.977Z,96067.63
2019-05-29T02:48:34.394Z,96072.10
2019-05-29T02:51:03.153Z,96069.96
2019-05-29T02:53:31.528Z,96069.45
2019-05-29T02:55:59.939Z,96081.88
2019-05-29T02:58:30.213Z,96084.83
2019-05-29T03:00:58.457Z,96084.36
2019-05-29T03:03:31.146Z,96089.45
2019-05-29T03:05:57.604Z,96091.58
2019-05-29T03:08:27.040Z,96093.16
2019-05-29T03:10:56.231Z,96096.45
2019-05-29T03:13:25.499Z,96101.41
2019-05-29T03:16:09.693Z,96103.59
2019-05-29T03:18:25.793Z,96105.25
2019-05-29T03:20:54.381Z,96108.20
2019-05-29T03:23:24.228Z,96109.22
2019-05-29T03:25:52.941Z,96107.25
2019-05-29T03:28:21.329Z,96113.87
2019-05-29T03:30:49.895Z,96115.41
2019-05-29T03:33:18.480Z,96118.23
2019-05-29T03:35:48.611Z,96122.84
2019-05-29T03:38:17.008Z,96126.52
2019-05-29T03:40:45.496Z,96132.49
2019-05-29T03:43:13.894Z,96138.30
2019-05-29T03:45:42.298Z,96138.13
2019-05-29T03:48:10.741Z,96134.83
2019-05-29T03:50:39.138Z,96139.66
2019-05-29T03:53:07.536Z,96140.20
2019-05-29T03:55:37.727Z,96145.49
2019-05-29T03:58:06.308Z,96154.76
2019-05-29T04:00:43.783Z,96151.97
2019-05-29T04:03:05.369Z,96151.50
2019-05-29T04:05:35.276Z,96156.96
2019-05-29T04:08:04.016Z,96155.50
2019-05-29T04:10:35.529Z,96163.78
2019-05-29T04:13:03.286Z,96168.56
2019-05-29T04:15:36.381Z,96170.05
2019-05-29T04:18:06.152Z,96170.59
2019-05-29T04:20:38.439Z,96174.73
2019-05-29T04:23:07.657Z,96179.68
2019-05-29T04:25:40.587Z,96179.38
2019-05-29T04:28:08.259Z,96178.53
2019-05-29T04:30:38.902Z,96180.98
2019-05-29T04:33:07.249Z,96186.76
2019-05-29T04:35:36.797Z,96193.17
2019-05-29T04:38:05.699Z,96189.71
2019-05-29T04:40:35.032Z,96190.36
2019-05-29T04:43:04.131Z,96199.59
2019-05-29T04:45:33.232Z,96200.75
2019-05-29T04:48:02.577Z,96199.77
2019-05-29T04:50:31.784Z,96209.98
2019-05-29T04:53:01.058Z,96201.06
2019-05-29T04:55:30.716Z,96211.66
2019-05-29T04:57:59.167Z,96214.97
2019-05-29T05:00:28.897Z,96218.61
2019-05-29T05:02:57.473Z,96220.44
2019-05-29T05:05:25.869Z,96218.27
2019-05-29T05:07:54.264Z,96222.24
2019-05-29T05:10:35.628Z,96222.41
2019-05-29T05:13:04.509Z,96226.55
2019-05-29T05:15:35.860Z,96227.20
2019-05-29T05:18:07.204Z,96230.19
2019-05-29T05:20:36.252Z,96239.09
2019-05-29T05:23:05.279Z,96240.08
2019-05-29T05:25:34.245Z,96241.88
2019-05-29T05:28:02.735Z,96243.31
2019-05-29T05:30:32.271Z,96246.07
2019-05-29T05:33:00.959Z,96245.70
2019-05-29T05:35:30.613Z,96243.02
2019-05-29T05:37:59.166Z,96252.09
2019-05-29T05:40:27.735Z,96246.79
2019-05-29T05:42:56.200Z,96254.56
2019-05-29T05:45:24.632Z,96258.03
2019-05-29T05:47:57.462Z,96260.85
2019-05-29T05:50:23.432Z,96263.30
2019-05-29T05:52:53.564Z,96268.77
2019-05-29T05:55:22.296Z,96269.92
2019-05-29T05:57:50.842Z,96273.89
2019-05-29T06:00:28.260Z,96274.68
2019-05-29T06:02:56.662Z,96277.43
2019-05-29T06:05:25.055Z,96280.09
2019-05-29T06:07:53.496Z,96287.73
2019-05-29T06:10:21.892Z,96283.75
2019-05-29T06:12:50.356Z,96284.27
2019-05-29T06:15:19.057Z,96290.01
2019-05-29T06:18:10.271Z,96296.43
2019-05-29T06:20:17.652Z,96294.25
2019-05-29T06:22:46.240Z,96290.88
2019-05-29T06:25:14.812Z,96290.53
2019-05-29T06:27:43.463Z,96299.73
2019-05-29T06:30:12.172Z,96304.66
2019-05-29T06:32:41.577Z,96299.61
2019-05-29T06:35:10.228Z,96300.77
2019-05-29T06:37:39.580Z,96302.77
2019-05-29T06:40:08.482Z,96312.50
2019-05-29T06:42:37.849Z,96308.12
2019-05-29T06:45:08.901Z,96305.77
2019-05-29T06:47:38.667Z,96312.87
2019-05-29T06:50:07.633Z,96316.81
2019-05-29T06:52:37.120Z,96313.13
2019-05-29T06:55:06.084Z,96316.72
2019-05-29T06:57:35.895Z,96322.31
2019-05-29T07:00:07.929Z,96332.38
2019-05-29T07:02:36.460Z,96334.17
2019-05-29T07:05:07.604Z,96330.02
2019-05-29T07:07:36.208Z,96336.95
2019-05-29T07:10:06.553Z,96339.66
2019-05-29T07:12:36.143Z,96335.72
2019-05-29T07:15:07.750Z,96338.08
2019-05-29T07:17:36.425Z,96345.91
2019-05-29T07:20:28.405Z,96349.25
2019-05-29T07:22:56.818Z,96345.78
2019-05-29T07:25:25.222Z,96348.73
2019-05-29T07:27:53.678Z,96349.25
2019-05-29T07:30:22.924Z,96348.09
2019-05-29T07:32:57.495Z,96351.09
2019-05-29T07:35:21.553Z,96353.53
2019-05-29T07:37:49.958Z,96357.00
2019-05-29T07:40:18.560Z,96360.42
2019-05-29T07:42:53.670Z,96359.56
2019-05-29T07:45:17.653Z,96357.55
2019-05-29T07:47:46.693Z,96361.18
2019-05-29T07:50:15.696Z,96363.66
2019-05-29T07:52:45.299Z,96363.15
2019-05-29T07:55:14.833Z,96368.03
2019-05-29T07:57:44.800Z,96372.95
2019-05-29T08:00:13.703Z,96374.39
2019-05-29T08:02:43.355Z,96378.80
2019-05-29T08:05:12.988Z,96378.63
2019-05-29T08:07:41.519Z,96381.75
2019-05-29T08:10:10.307Z,96384.99
2019-05-29T08:12:42.333Z,96381.75
2019-05-29T08:15:09.681Z,96373.97
2019-05-29T08:17:38.113Z,96381.98
2019-05-29T08:20:10.187Z,96378.97
2019-05-29T08:22:38.651Z,96386.38
2019-05-29T08:25:07.388Z,96384.53
2019-05-29T08:27:35.821Z,96383.66
2019-05-29T08:30:07.268Z,96383.17
2019-05-29T08:32:35.700Z,96380.87
2019-05-29T08:35:06.256Z,96381.56
2019-05-29T08:37:34.723Z,96383.47
2019-05-29T08:40:05.566Z,96385.33
2019-05-29T08:42:33.993Z,96390.52
2019-05-29T08:45:02.391Z,96392.20
2019-05-29T08:47:33.765Z,96389.50
2019-05-29T08:50:17.224Z,96393.59
2019-05-29T08:52:32.508Z,96400.40
2019-05-29T08:55:00.915Z,96404.03
2019-05-29T08:57:29.344Z,96400.68
2019-05-29T08:59:57.748Z,96408.12
2019-05-29T09:02:26.149Z,96408.77
2019-05-29T09:04:55.013Z,96405.91
2019-05-29T09:07:23.485Z,96410.10
2019-05-29T09:09:53.237Z,96408.84
2019-05-29T09:12:21.993Z,96404.27
2019-05-29T09:14:50.396Z,96408.20
2019-05-29T09:17:18.792Z,96410.67
2019-05-29T09:19:47.221Z,96418.14
2019-05-29T09:22:16.538Z,96412.84
2019-05-29T09:24:45.045Z,96412.38
2019-05-29T09:27:14.479Z,96421.33
2019-05-29T09:29:43.758Z,96419.97
2019-05-29T09:32:13.482Z,96425.18
2019-05-29T09:34:42.395Z,96432.34
2019-05-29T09:37:10.892Z,96436.34
2019-05-29T09:39:39.373Z,96436.94
2019-05-29T09:42:08.019Z,96445.64
2019-05-29T09:44:39.313Z,96444.36
2019-05-29T09:47:06.564Z,96438.41
2019-05-29T09:49:35.003Z,96442.70
2019-05-29T09:52:04.145Z,96445.35
2019-05-29T09:54:32.736Z,96438.19
2019-05-29T09:57:01.317Z,96443.53
2019-05-29T09:59:29.785Z,96447.66
2019-05-29T10:02:02.423Z,96444.38
2019-05-29T10:04:28.486Z,96441.02
2019-05-29T10:06:57.582Z,96439.58
2019-05-29T10:09:26.054Z,96443.81
2019-05-29T10:11:58.498Z,96440.80
2019-05-29T10:14:24.613Z,96438.72
2019-05-29T10:16:56.131Z,96440.58
2019-05-29T10:19:26.065Z,96435.92
2019-05-29T10:21:54.840Z,96442.06
2019-05-29T10:24:24.606Z,96434.62
2019-05-29T10:26:53.212Z,96434.86
2019-05-29T10:29:21.611Z,96448.44
2019-05-29T10:31:51.405Z,96452.23
2019-05-29T10:34:20.165Z,96452.69
2019-05-29T10:36:51.749Z,96464.31
2019-05-29T10:39:18.828Z,96474.09
2019-05-29T10:41:47.254Z,96478.47
2019-05-29T10:44:15.654Z,96473.51
2019-05-29T10:46:46.100Z,96470.20
2019-05-29T10:49:14.265Z,96464.84
2019-05-29T10:51:57.991Z,96457.09
2019-05-29T10:54:12.774Z,96463.09
2019-05-29T10:56:41.226Z,96460.44
2019-05-29T10:59:09.697Z,96457.44
2019-05-29T11:01:38.087Z,96459.41
2019-05-29T11:04:06.540Z,96459.28
2019-05-29T11:06:34.948Z,96469.78
2019-05-29T11:09:04.292Z,96474.36
2019-05-29T11:11:32.796Z,96476.88
2019-05-29T11:14:01.206Z,96479.88
2019-05-29T11:16:29.600Z,96478.00
2019-05-29T11:18:58.274Z,96488.62
2019-05-29T11:21:26.692Z,96492.19
2019-05-29T11:23:56.012Z,96492.91
2019-05-29T11:26:24.754Z,96499.07
2019-05-29T11:28:54.371Z,96495.45
2019-05-29T11:31:22.989Z,96494.82
2019-05-29T11:33:53.081Z,96502.87
2019-05-29T11:36:22.866Z,96511.02
2019-05-29T11:38:52.476Z,96510.14
2019-05-29T11:41:26.485Z,96507.06
2019-05-29T11:43:51.142Z,96511.95
2019-05-29T11:46:19.550Z,96512.94
2019-05-29T11:48:48.136Z,96512.43
2019-05-29T11:51:16.682Z,96518.72
2019-05-29T11:53:45.152Z,96519.28
2019-05-29T11:56:13.798Z,96523.29
2019-05-29T11:58:42.195Z,96523.67
2019-05-29T12:01:10.662Z,96527.31
2019-05-29T12:03:57.870Z,96522.98
2019-05-29T12:06:09.382Z,96525.59
2019-05-29T12:08:37.809Z,96515.59
2019-05-29T12:11:07.298Z,96513.83
2019-05-29T12:13:35.791Z,96515.45
2019-05-29T12:16:04.267Z,96515.65
2019-05-29T12:18:32.706Z,96514.05
2019-05-29T12:21:02.805Z,96517.29
2019-05-29T12:23:31.391Z,96512.64
2019-05-29T12:26:16.604Z,96513.53
2019-05-29T12:28:30.006Z,96511.03
2019-05-29T12:30:59.043Z,96517.92
2019-05-29T12:33:27.588Z,96518.97
2019-05-29T12:35:56.983Z,96521.78
2019-05-29T12:38:25.370Z,96518.22
2019-05-29T12:40:57.668Z,96519.42
2019-05-29T12:43:27.975Z,96522.96
2019-05-29T12:45:57.744Z,96519.89
2019-05-29T12:48:26.430Z,96519.95
2019-05-29T12:50:56.086Z,96511.16
2019-05-29T12:53:30.112Z,96513.94
2019-05-29T12:55:56.146Z,96514.58
2019-05-29T12:58:24.802Z,96516.23
2019-05-29T13:00:54.444Z,96520.08
2019-05-29T13:03:23.025Z,96520.98
2019-05-29T13:05:51.441Z,96529.65
2019-05-29T13:08:19.866Z,96535.45
2019-05-29T13:10:48.387Z,96544.97
2019-05-29T13:13:16.783Z,96564.50
2019-05-29T13:15:45.186Z,96566.05
2019-05-29T13:18:13.824Z,96573.41
2019-05-29T13:20:42.232Z,96575.64
2019-05-29T13:23:10.640Z,96576.58
2019-05-29T13:25:40.198Z,96580.96
2019-05-29T13:28:08.669Z,96582.68
2019-05-29T13:30:38.606Z,96580.20
2019-05-29T13:33:08.827Z,96578.39
2019-05-29T13:35:37.252Z,96576.91
2019-05-29T13:38:05.724Z,96576.59
2019-05-29T13:40:34.179Z,96580.40
2019-05-29T13:43:11.415Z,96584.52
2019-05-29T13:45:32.941Z,96587.00
2019-05-29T13:48:03.087Z,96591.20
2019-05-29T13:50:31.796Z,96593.36
2019-05-29T13:53:01.273Z,96590.36
2019-05-29T13:55:30.087Z,96600.52
2019-05-29T13:57:59.441Z,96595.50
2019-05-29T14:00:33.964Z,96598.50
2019-05-29T14:02:58.540Z,96613.45
2019-05-29T14:05:27.183Z,96616.66
2019-05-29T14:07:55.590Z,96621.74
2019-05-29T14:10:24.440Z,96629.30
2019-05-29T14:12:52.820Z,96628.52
2019-05-29T14:15:21.384Z,96629.87
2019-05-29T14:17:49.832Z,96641.51
2019-05-29T14:20:18.481Z,96635.72
2019-05-29T14:22:47.038Z,96642.52
2019-05-29T14:25:15.908Z,96649.05
2019-05-29T14:27:44.385Z,96647.71
2019-05-29T14:30:14.230Z,96645.28
2019-05-29T14:32:42.722Z,96646.63
2019-05-29T14:35:13.334Z,96644.15
2019-05-29T14:37:42.044Z,96648.78
2019-05-29T14:40:12.136Z,96651.60
2019-05-29T14:42:40.736Z,96654.45
2019-05-29T14:45:10.528Z,96650.61
2019-05-29T14:47:39.320Z,96651.09
2019-05-29T14:50:08.939Z,96647.77
2019-05-29T14:52:38.245Z,96643.16
2019-05-29T14:55:09.362Z,96646.14
2019-05-29T14:57:38.232Z,96641.34
2019-05-29T15:00:19.993Z,96640.36
2019-05-29T15:02:38.366Z,96640.64
2019-05-29T15:05:07.762Z,96640.80
2019-05-29T15:07:36.489Z,96641.28
2019-05-29T15:10:21.765Z,96645.23
2019-05-29T15:12:39.080Z,96647.72
2019-05-29T15:15:11.066Z,96648.68
2019-05-29T15:17:39.475Z,96658.77
2019-05-29T15:20:10.396Z,96662.58
2019-05-29T15:22:39.838Z,96663.09
2019-05-29T15:25:18.360Z,96661.42
2019-05-29T15:27:38.721Z,96669.58
2019-05-29T15:30:08.799Z,96668.08
2019-05-29T15:32:37.382Z,96664.95
2019-05-29T15:35:13.910Z,96672.44
2019-05-29T15:37:38.845Z,96676.44
2019-05-29T15:40:08.970Z,96675.78
2019-05-29T15:42:37.591Z,96670.67
2019-05-29T15:45:08.150Z,96673.63
2019-05-29T15:47:36.842Z,96675.28
2019-05-29T15:50:09.421Z,96676.92
2019-05-29T15:52:37.970Z,96677.09
2019-05-29T15:55:21.322Z,96677.91
2019-05-29T15:57:38.419Z,96680.55
2019-05-29T16:00:13.719Z,96678.54
2019-05-29T16:02:42.250Z,96684.50
2019-05-29T16:05:12.919Z,96682.35
2019-05-29T16:07:41.628Z,96680.88
2019-05-29T16:10:14.712Z,96684.02
2019-05-29T16:12:42.759Z,96688.65
2019-05-29T16:15:13.260Z,96686.19
2019-05-29T16:17:41.932Z,96694.16
2019-05-29T16:20:12.333Z,96697.94
2019-05-29T16:22:40.903Z,96700.28
2019-05-29T16:25:10.827Z,96695.48
2019-05-29T16:27:39.307Z,96698.95
2019-05-29T16:30:11.909Z,96699.78
2019-05-29T16:32:40.305Z,96702.44
2019-05-29T16:35:09.453Z,96711.23
2019-05-29T16:37:37.885Z,96709.55
2019-05-29T16:40:31.346Z,96709.89
2019-05-29T16:42:59.995Z,96713.56
2019-05-29T16:45:28.533Z,96716.87
2019-05-29T16:47:56.939Z,96719.83
2019-05-29T16:50:25.408Z,96726.98
2019-05-29T16:52:53.850Z,96731.31
2019-05-29T16:55:23.070Z,96727.81
2019-05-29T16:57:51.634Z,96729.59
2019-05-29T17:00:21.689Z,96732.08
2019-05-29T17:02:50.263Z,96738.05
2019-05-29T17:05:20.531Z,96728.08
2019-05-29T17:07:49.190Z,96732.54
2019-05-29T17:10:20.163Z,96734.21
2019-05-29T17:12:48.841Z,96736.87
2019-05-29T17:15:18.827Z,96737.03
2019-05-29T17:17:47.361Z,96739.04
2019-05-29T17:20:18.643Z,96742.68
2019-05-29T17:22:47.458Z,96747.68
2019-05-29T17:25:18.952Z,96756.48
2019-05-29T17:27:47.406Z,96760.47
2019-05-29T17:30:18.914Z,96758.16
2019-05-29T17:32:47.309Z,96759.94
2019-05-29T17:35:17.129Z,96770.06
2019-05-29T17:37:45.757Z,96773.03
2019-05-29T17:40:14.980Z,96771.54
2019-05-29T17:42:43.558Z,96774.54
2019-05-29T17:45:13.008Z,96777.02
2019-05-29T17:47:42.131Z,96781.00
2019-05-29T17:50:10.902Z,96786.00
2019-05-29T17:52:39.285Z,96784.67
2019-05-29T17:55:08.568Z,96791.15
2019-05-29T17:57:37.614Z,96790.95
2019-05-29T18:00:12.130Z,96797.59
2019-05-29T18:02:51.527Z,96802.25
2019-05-29T18:05:11.246Z,96805.41
2019-05-29T18:07:39.714Z,96805.44
2019-05-29T18:10:08.955Z,96807.27
2019-05-29T18:12:37.375Z,96809.42
2019-05-29T18:15:08.204Z,96816.38
2019-05-29T18:17:36.774Z,96815.70
2019-05-29T18:20:14.043Z,96820.70
2019-05-29T18:22:40.235Z,96821.20
2019-05-29T18:25:09.062Z,96824.34
2019-05-29T18:27:37.532Z,96827.66
2019-05-29T18:30:07.875Z,96828.68
2019-05-29T18:32:37.322Z,96829.02
2019-05-29T18:35:10.510Z,96832.19
2019-05-29T18:37:38.980Z,96832.38
2019-05-29T18:40:12.478Z,96837.70
2019-05-29T18:42:39.409Z,96838.38
2019-05-29T18:45:20.419Z,96840.70
2019-05-29T18:47:39.180Z,96847.52
2019-05-29T18:50:09.746Z,96852.00
2019-05-29T18:52:38.156Z,96852.48
2019-05-29T18:55:11.609Z,96853.66
2019-05-29T18:57:40.057Z,96859.64
2019-05-29T19:00:10.239Z,96859.33
2019-05-29T19:02:39.893Z,96865.11
2019-05-29T19:05:29.628Z,96872.77
2019-05-29T19:08:01.514Z,96871.25
2019-05-29T19:10:30.343Z,96872.42
2019-05-29T19:12:59.900Z,96881.55
2019-05-29T19:15:28.297Z,96884.37
2019-05-29T19:17:58.427Z,96884.52
2019-05-29T19:20:28.502Z,96890.66
2019-05-29T19:22:57.299Z,96896.81
2019-05-29T19:25:26.861Z,96903.92
2019-05-29T19:27:57.499Z,96908.09
2019-05-29T19:30:29.268Z,96909.42
2019-05-29T19:32:58.106Z,96913.41
2019-05-29T19:35:27.580Z,96911.73
2019-05-29T19:37:56.077Z,96918.02
2019-05-29T19:40:25.947Z,96924.17
2019-05-29T19:42:54.939Z,96926.66
2019-05-29T19:45:24.644Z,96936.94
2019-05-29T19:47:53.203Z,96938.09
2019-05-29T19:50:21.835Z,96939.59
2019-05-29T19:52:50.287Z,96942.39
2019-05-29T19:55:18.780Z,96948.71
2019-05-29T19:57:55.502Z,96944.55
2019-05-29T20:00:17.714Z,96948.72
2019-05-29T20:02:46.113Z,96951.20
2019-05-29T20:05:15.104Z,96952.85
2019-05-29T20:07:43.507Z,96953.36
2019-05-29T20:10:12.552Z,96951.05
2019-05-29T20:12:40.993Z,96952.53
2019-05-29T20:15:09.938Z,96957.69
2019-05-29T20:17:38.637Z,96961.47
2019-05-29T20:20:08.861Z,96961.31
2019-05-29T20:22:37.342Z,96965.61
2019-05-29T20:25:07.565Z,96968.77
2019-05-29T20:27:36.379Z,96971.92
2019-05-29T20:30:08.069Z,96965.61
2019-05-29T20:32:36.890Z,96974.23
2019-05-29T20:35:06.511Z,96976.02
2019-05-29T20:37:36.142Z,96973.72
2019-05-29T20:40:06.346Z,96976.37
2019-05-29T20:42:34.767Z,96971.41
2019-05-29T20:45:03.833Z,96979.03
2019-05-29T20:47:33.885Z,96981.69
2019-05-29T20:50:02.484Z,96989.33
2019-05-29T20:52:31.100Z,96992.64
2019-05-29T20:54:59.642Z,96992.95
2019-05-29T20:57:28.052Z,96996.94
2019-05-29T20:59:56.451Z,96994.95
2019-05-29T21:02:24.849Z,96996.78
2019-05-29T21:04:53.281Z,96998.27
2019-05-29T21:07:21.701Z,96992.45
2019-05-29T21:09:50.085Z,96998.92
2019-05-29T21:12:18.644Z,97002.58
2019-05-29T21:14:47.039Z,97005.05
2019-05-29T21:17:15.527Z,97002.43
2019-05-29T21:19:44.721Z,97008.05
2019-05-29T21:22:13.307Z,97006.58
2019-05-29T21:24:46.263Z,97005.56
2019-05-29T21:27:12.027Z,97010.20
2019-05-29T21:29:41.248Z,97008.56
2019-05-29T21:32:09.718Z,97013.52
2019-05-29T21:34:38.361Z,97017.17
2019-05-29T21:37:06.791Z,97012.19
2019-05-29T21:39:36.271Z,97012.19
2019-05-29T21:42:04.927Z,97008.55
2019-05-29T21:44:33.384Z,97014.83
2019-05-29T21:47:01.791Z,97018.30
2019-05-29T21:49:31.477Z,97019.61
2019-05-29T21:52:00.132Z,97026.40
2019-05-29T21:54:28.547Z,97021.25
2019-05-29T21:56:58.720Z,97025.42
2019-05-29T21:59:27.100Z,97026.08
2019-05-29T22:01:55.591Z,97026.73
2019-05-29T22:04:24.035Z,97028.05
2019-05-29T22:06:52.505Z,97030.00
2019-05-29T22:09:20.975Z,97029.85
2019-05-29T22:11:50.232Z,97032.50
2019-05-29T22:14:18.800Z,97032.34
2019-05-29T22:16:47.253Z,97038.67
2019-05-29T22:19:15.758Z,97035.02
2019-05-29T22:21:44.161Z,97038.48
2019-05-29T22:24:12.574Z,97035.17
2019-05-29T22:26:41.025Z,97036.98
2019-05-29T22:29:18.057Z,97033.78
2019-05-29T22:31:39.638Z,97037.45
2019-05-29T22:34:08.063Z,97038.77
2019-05-29T22:36:36.470Z,97033.94
2019-05-29T22:39:06.771Z,97036.59
2019-05-29T22:41:35.199Z,97039.59
2019-05-29T22:44:03.790Z,97043.56
2019-05-29T22:46:32.176Z,97043.56
2019-05-29T22:49:01.954Z,97037.23
2019-05-29T22:51:30.497Z,97048.12
2019-05-29T22:53:59.908Z,97046.97
2019-05-29T22:56:28.406Z,97048.59
2019-05-29T22:58:57.969Z,97048.43
2019-05-29T23:01:26.479Z,97046.60
2019-05-29T23:03:56.055Z,97052.22
2019-05-29T23:06:24.485Z,97057.36
2019-05-29T23:08:54.050Z,97056.16
2019-05-29T23:11:22.604Z,97058.14
2019-05-29T23:13:52.197Z,97056.31
2019-05-29T23:16:20.699Z,97056.81
2019-05-29T23:18:49.143Z,97063.29
2019-05-29T23:21:17.534Z,97060.48
2019-05-29T23:23:45.934Z,97067.28
2019-05-29T23:26:14.437Z,97068.96
2019-05-29T23:28:42.830Z,97065.28
2019-05-29T23:31:11.289Z,97059.30
2019-05-29T23:33:39.710Z,97066.42
2019-05-29T23:36:08.123Z,97062.92
2019-05-29T23:38:36.524Z,97061.42
2019-05-29T23:41:05.322Z,97055.75
2019-05-29T23:43:33.713Z,97059.05
2019-05-29T23:46:02.776Z,97060.20
2019-05-29T23:48:32.256Z,97061.18
2019-05-29T23:51:01.735Z,97056.88
2019-05-29T23:53:30.140Z,97056.36
2019-05-29T23:55:59.683Z,97058.19
2019-05-29T23:58:28.137Z,97058.19
